createdAt,value
2022-11-16T00:12:20.850Z,7.6
2022-11-16T00:17:32.027Z,7.7
2022-11-16T00:22:47.786Z,7.7
2022-11-16T00:33:21.882Z,7.5
2022-11-16T00:38:33.993Z,7.5
2022-11-16T00:43:44.253Z,7.9
2022-11-16T00:48:54.467Z,7.9
2022-11-16T00:59:32.609Z,7.9
2022-11-16T01:10:06.207Z,7.7
2022-11-16T01:26:00.265Z,8.7
2022-11-16T01:31:10.749Z,9
2022-11-16T01:52:26.319Z,9.3
2022-11-16T01:57:38.104Z,9.2
2022-11-16T02:08:11.144Z,9.2
2022-11-16T02:13:23.274Z,9.1
2022-11-16T02:18:35.882Z,9.1
2022-11-16T02:23:48.244Z,8.9
2022-11-16T02:28:58.947Z,8.6
2022-11-16T02:34:10.634Z,8.4
2022-11-16T02:44:41.043Z,8.4
2022-11-16T02:55:13.067Z,8.3
2022-11-16T03:00:23.407Z,8.2
2022-11-16T03:05:35.389Z,8.1
2022-11-16T03:21:29.133Z,8.4
2022-11-16T03:26:41.850Z,8.3
2022-11-16T03:31:53.050Z,8.3
2022-11-16T03:37:03.908Z,8.4
2022-11-16T03:42:16.368Z,8.5
2022-11-16T03:47:28.005Z,8.4
2022-11-16T03:52:39.501Z,8.4
2022-11-16T03:57:50.935Z,8.3
2022-11-16T04:03:04.177Z,8.2
2022-11-16T04:08:14.400Z,8.2
2022-11-16T04:13:24.423Z,8.1
2022-11-16T04:18:37.503Z,8.2
2022-11-16T04:29:09.304Z,8.2
2022-11-16T04:34:23.501Z,8.2
2022-11-16T04:39:35.059Z,8.1
2022-11-16T04:50:07.218Z,8.1
2022-11-16T05:11:24.245Z,7.9
2022-11-16T05:16:39.936Z,7.9
2022-11-16T05:21:54.969Z,7.9
2022-11-16T05:32:28.589Z,7.9
2022-11-16T05:37:40.605Z,7.8
2022-11-16T05:53:35.577Z,7.8
2022-11-16T05:58:52.120Z,7.8
2022-11-16T06:04:03.893Z,7.9
2022-11-16T06:14:37.238Z,7.9
2022-11-16T06:19:46.583Z,8
2022-11-16T06:25:00.277Z,8.1
2022-11-16T06:46:16.006Z,8
2022-11-16T07:02:11.463Z,8
2022-11-16T07:23:27.042Z,8.1
2022-11-16T07:28:48.805Z,8.1
2022-11-16T07:44:34.194Z,8.2
2022-11-16T07:49:50.899Z,8.2
2022-11-16T07:55:06.071Z,8.2
2022-11-16T08:00:15.103Z,8.4
2022-11-16T08:05:25.739Z,8.4
2022-11-16T08:10:35.756Z,8.6
2022-11-16T08:15:49.184Z,8.7
2022-11-16T08:20:59.317Z,8.9
2022-11-16T08:26:11.372Z,8.9
2022-11-16T08:31:23.247Z,9
2022-11-16T08:41:56.620Z,9
2022-11-16T08:47:09.961Z,9
2022-11-16T08:57:41.756Z,9.1
2022-11-16T09:02:53.896Z,9.2
2022-11-16T09:08:06.218Z,9.2
2022-11-16T09:13:22.364Z,9.2
2022-11-16T09:18:35.133Z,9.3
2022-11-16T09:39:50.149Z,9.4
2022-11-16T09:45:00.397Z,9.3
2022-11-16T09:55:48.767Z,9.3
2022-11-16T10:17:01.997Z,9.3
2022-11-16T10:22:12.305Z,9.4
2022-11-16T10:43:30.086Z,9.6
2022-11-16T10:48:42.163Z,9.7
2022-11-16T10:53:54.374Z,10
2022-11-16T10:59:05.846Z,10.3
2022-11-16T11:04:18.329Z,10.3
2022-11-16T11:14:52.834Z,10.7
2022-11-16T11:36:07.799Z,10.5
2022-11-16T11:41:20.277Z,10.4
2022-11-16T12:02:38.559Z,10.5
2022-11-16T12:23:55.579Z,11.3
2022-11-16T12:45:11.050Z,11.5
2022-11-16T12:50:22.516Z,10.8
2022-11-16T12:55:34.288Z,10.9
2022-11-16T13:06:12.939Z,10.9
2022-11-16T13:11:29.133Z,10.9
2022-11-16T13:16:46.359Z,13.5
2022-11-16T13:22:02.153Z,15.4
2022-11-16T13:32:35.625Z,16.5
2022-11-16T13:48:38.878Z,17.7
2022-11-16T13:54:47.303Z,19.4
2022-11-16T13:59:02.158Z,17.5
2022-11-16T14:04:09.440Z,15.4
2022-11-16T14:09:19.026Z,13.4
2022-11-16T14:14:29.943Z,12.3
2022-11-16T14:25:03.220Z,11.5
2022-11-16T14:30:14.206Z,11.2
2022-11-16T14:46:10.321Z,10.8
2022-11-16T14:51:27.121Z,10.8
2022-11-16T15:07:20.690Z,10.3
2022-11-16T15:18:07.863Z,10.3
2022-11-16T15:23:16.903Z,10.9
2022-11-16T15:39:14.011Z,10.9
2022-11-16T15:44:25.403Z,10
2022-11-16T16:00:23.603Z,10
2022-11-16T16:05:34.015Z,9.3
2022-11-16T16:21:29.577Z,9.3
2022-11-16T16:26:49.726Z,9.3
2022-11-16T16:37:22.126Z,9.2
2022-11-16T16:42:38.214Z,9.2
2022-11-16T16:47:49.041Z,8.9
2022-11-16T16:53:05.003Z,8.9
2022-11-16T17:03:38.060Z,8.3
2022-11-16T17:14:15.058Z,8.3
2022-11-16T17:19:25.373Z,8.3
2022-11-16T17:24:35.078Z,8.3
2022-11-16T17:29:49.534Z,7.8
2022-11-16T17:34:57.353Z,7.7
2022-11-16T17:40:09.010Z,7.7
2022-11-16T17:45:19.871Z,7.6
2022-11-16T17:50:31.209Z,7.4
2022-11-16T17:55:41.318Z,7.1
2022-11-16T18:00:53.565Z,7.1
2022-11-16T18:06:05.218Z,7
2022-11-16T18:11:18.641Z,7
2022-11-16T18:21:49.299Z,6.4
2022-11-16T18:27:00.582Z,6.5
2022-11-16T18:32:10.505Z,6.6
2022-11-16T18:37:22.256Z,6.5
2022-11-16T18:42:37.994Z,6.5
2022-11-16T18:47:48.315Z,6.5
2022-11-16T18:53:00.258Z,6.4
2022-11-16T18:58:53.298Z,6.3
2022-11-16T19:14:09.891Z,6.3
2022-11-16T19:19:21.243Z,5.9
2022-11-16T19:24:34.548Z,5.9
2022-11-16T19:29:44.125Z,5.9
2022-11-16T19:34:54.708Z,6
2022-11-16T19:40:06.443Z,5.9
2022-11-16T19:45:22.473Z,5.9
2022-11-16T19:56:02.315Z,6
2022-11-16T20:01:08.843Z,6.1
2022-11-16T20:22:23.296Z,5.5
2022-11-16T20:27:34.897Z,5.3
2022-11-16T20:32:46.599Z,5.3
2022-11-16T20:43:21.878Z,5.3
2022-11-16T20:48:36.159Z,5.2
2022-11-16T20:53:45.354Z,5.2
2022-11-16T20:58:59.965Z,5.2
2022-11-16T21:04:10.582Z,5.1
2022-11-16T21:09:22.295Z,5
2022-11-16T21:14:38.563Z,5
2022-11-16T21:20:28.935Z,5
2022-11-16T21:25:04.820Z,5
2022-11-16T21:30:15.864Z,4.9
2022-11-16T21:35:26.294Z,4.6
2022-11-16T21:40:36.421Z,4.7
2022-11-16T21:45:49.493Z,4.8
2022-11-16T21:51:05.013Z,4.6
2022-11-16T21:56:11.859Z,4.6
2022-11-16T22:01:24.249Z,4.5
2022-11-16T22:06:40.353Z,4.5
2022-11-16T22:11:52.252Z,4.5
2022-11-16T22:17:04.323Z,4.3
2022-11-16T22:22:15.971Z,4.2
2022-11-16T22:27:25.142Z,4.3
2022-11-16T22:37:56.802Z,4.3
2022-11-16T22:48:29.294Z,3.9
2022-11-16T22:53:39.735Z,3.9
2022-11-16T22:58:51.526Z,4
2022-11-16T23:04:03.731Z,3.9
2022-11-16T23:09:13.751Z,3.8
2022-11-16T23:14:23.874Z,3.9
2022-11-16T23:19:36.034Z,4
2022-11-16T23:24:46.552Z,4
2022-11-16T23:29:57.158Z,4
2022-11-16T23:40:30.182Z,4.2
2022-11-16T23:45:39.988Z,4.3
2022-11-16T23:50:51.760Z,4.3
2022-11-16T23:56:06.906Z,4.3
